Time;durP1;ratioP1;P1;durP2;ratioP2;P2;SDS_P1;SDS_P2;PMS_P1;PMS_P2;Temp;Humidity;BMP_temperature;BMP_pressure;BME280_temperature;BME280_humidity;BME280_pressure;Samples;Min_cycle;Max_cycle;Signal;HPM_P1;HPM_P2
2023/11/27 00:02:06;;;;;;;13.52;12.20;;;;;;;3.87;93.10;97790.56;4964655;28;20034;-70
2023/11/27 00:04:31;;;;;;;15.90;13.40;;;;;;;3.88;93.23;97776.19;4962696;28;20024;-71
2023/11/27 00:06:57;;;;;;;14.05;12.63;;;;;;;3.96;93.36;97794.63;4984274;28;20035;-70
2023/11/27 00:09:22;;;;;;;14.68;13.18;;;;;;;3.91;94.07;97794.44;4986688;28;20050;-71
2023/11/27 00:11:48;;;;;;;14.85;13.30;;;;;;;3.94;93.55;97783.34;4962352;28;20042;-71
2023/11/27 00:14:14;;;;;;;16.58;14.57;;;;;;;3.99;93.37;97791.50;4987735;28;20022;-71
2023/11/27 00:16:39;;;;;;;15.55;13.43;;;;;;;3.96;93.78;97786.63;4980344;28;20038;-71
2023/11/27 00:19:05;;;;;;;16.83;15.02;;;;;;;3.96;93.46;97789.28;4949325;28;20022;-70
2023/11/27 00:21:31;;;;;;;16.65;13.95;;;;;;;3.92;94.16;97782.72;4964277;28;20511;-70
2023/11/27 00:23:56;;;;;;;16.42;14.75;;;;;;;3.97;93.78;97782.91;4967850;28;20023;-70
2023/11/27 00:26:22;;;;;;;15.25;13.70;;;;;;;3.99;93.41;97783.50;4981979;28;20062;-71
2023/11/27 00:28:53;;;;;;;17.55;15.45;;;;;;;4.04;93.35;97775.69;4987076;28;20367;-70
2023/11/27 00:31:19;;;;;;;18.42;15.45;;;;;;;4.04;93.66;97774.88;4983495;28;20039;-70
2023/11/27 00:33:45;;;;;;;21.25;15.73;;;;;;;3.95;93.83;97765.50;4976685;28;20034;-71
2023/11/27 00:36:12;;;;;;;16.08;14.38;;;;;;;3.96;93.92;97762.66;4968218;28;20069;-71
2023/11/27 00:38:38;;;;;;;17.23;15.52;;;;;;;3.90;93.76;97771.47;4985284;28;20023;-70
2023/11/27 00:41:05;;;;;;;17.58;15.77;;;;;;;3.87;94.18;97747.13;4945618;28;20159;-71
2023/11/27 00:43:30;;;;;;;16.08;14.27;;;;;;;3.92;94.13;97766.75;4984401;28;20026;-69
2023/11/27 00:45:56;;;;;;;16.75;14.65;;;;;;;3.93;93.78;97763.06;4979137;28;20035;-69
2023/11/27 00:48:22;;;;;;;17.63;15.07;;;;;;;3.95;93.61;97760.19;4986018;28;20030;-69
2023/11/27 00:50:48;;;;;;;17.38;15.50;;;;;;;3.92;93.89;97766.75;4978648;28;20043;-69
2023/11/27 00:53:13;;;;;;;18.02;15.48;;;;;;;3.92;94.00;97761.41;4964542;28;20615;-71
2023/11/27 00:55:39;;;;;;;16.77;15.02;;;;;;;3.89;93.87;97756.53;4980491;28;20038;-70
2023/11/27 00:58:04;;;;;;;16.95;15.20;;;;;;;3.97;93.62;97766.94;4978810;28;20030;-71
2023/11/27 01:00:30;;;;;;;17.45;14.70;;;;;;;3.92;93.29;97764.09;4981496;28;20035;-73
2023/11/27 01:02:56;;;;;;;20.52;16.20;;;;;;;3.87;93.31;97758.59;4985538;28;20030;-71
2023/11/27 01:05:21;;;;;;;21.48;16.83;;;;;;;3.99;93.27;97778.19;4981398;28;20081;-70
2023/11/27 01:07:47;;;;;;;17.10;15.30;;;;;;;3.94;94.00;97770.03;4962942;28;20084;-71
2023/11/27 01:10:12;;;;;;;20.83;16.35;;;;;;;4.02;93.31;97772.44;4983410;28;20051;-72
2023/11/27 01:12:38;;;;;;;18.90;16.25;;;;;;;4.02;93.11;97753.78;4981517;28;20026;-71
2023/11/27 01:15:06;;;;;;;19.52;15.52;;;;;;;4.06;92.26;97762.19;4983532;28;20565;-70
2023/11/27 01:17:32;;;;;;;23.45;17.70;;;;;;;4.07;93.27;97759.31;4981859;28;20119;-70
2023/11/27 01:19:57;;;;;;;19.95;16.63;;;;;;;4.04;92.51;97737.59;4955688;28;20031;-69
2023/11/27 01:22:23;;;;;;;19.67;16.58;;;;;;;4.12;92.53;97746.16;4986113;28;20426;-70
2023/11/27 01:24:49;;;;;;;19.65;17.55;;;;;;;4.15;92.47;97745.69;4961033;28;20035;-70
2023/11/27 01:27:15;;;;;;;22.40;17.95;;;;;;;4.18;92.14;97745.28;4981217;28;20033;-69
2023/11/27 01:29:40;;;;;;;19.30;16.88;;;;;;;4.17;92.12;97743.66;4975535;28;20049;-71
2023/11/27 01:32:06;;;;;;;21.60;18.20;;;;;;;4.24;92.27;97743.63;4976083;28;20031;-70
2023/11/27 01:34:32;;;;;;;25.83;19.90;;;;;;;4.26;91.85;97732.72;4979297;28;20039;-71
2023/11/27 01:36:58;;;;;;;22.02;18.00;;;;;;;4.30;91.56;97736.59;4983947;28;20025;-70
2023/11/27 01:39:23;;;;;;;22.10;18.23;;;;;;;4.30;92.10;97731.25;4979698;28;20030;-73
2023/11/27 01:41:50;;;;;;;24.58;19.33;;;;;;;4.30;91.38;97725.94;4978085;28;20529;-71
2023/11/27 01:44:15;;;;;;;22.98;18.30;;;;;;;4.34;91.33;97717.28;4963876;28;20030;-71
2023/11/27 01:46:45;;;;;;;27.60;19.48;;;;;;;4.22;91.81;97717.16;4979495;28;20106;-70
2023/11/27 01:49:11;;;;;;;23.25;18.73;;;;;;;4.37;91.83;97732.03;4983856;28;20041;-70
2023/11/27 01:51:37;;;;;;;24.85;20.38;;;;;;;4.39;91.22;97720.13;4980060;28;20041;-71
2023/11/27 01:54:03;;;;;;;24.95;19.08;;;;;;;4.35;91.21;97720.78;4961008;28;20132;-70
2023/11/27 01:56:30;;;;;;;26.98;20.48;;;;;;;4.40;91.54;97718.28;4981820;28;20118;-71
2023/11/27 01:58:57;;;;;;;24.85;20.45;;;;;;;4.36;91.03;97709.09;4943469;28;20093;-71
2023/11/27 02:01:23;;;;;;;29.88;21.55;;;;;;;4.32;90.69;97708.69;4961345;28;20026;-71
2023/11/27 02:03:48;;;;;;;28.15;20.33;;;;;;;4.35;91.26;97704.78;4960038;28;20046;-71
2023/11/27 02:06:14;;;;;;;28.42;19.63;;;;;;;4.35;91.56;97696.78;4961626;28;20479;-71
2023/11/27 02:08:40;;;;;;;26.52;19.85;;;;;;;4.31;91.73;97700.94;4976899;28;20049;-71
2023/11/27 02:11:05;;;;;;;26.35;20.75;;;;;;;4.34;91.55;97690.63;4979822;28;20031;-71
2023/11/27 02:13:31;;;;;;;25.58;20.10;;;;;;;4.22;91.24;97680.91;4962485;28;20043;-71
2023/11/27 02:15:57;;;;;;;28.33;19.75;;;;;;;4.30;91.43;97693.94;4950055;28;20529;-72
2023/11/27 02:18:23;;;;;;;30.55;21.75;;;;;;;4.22;91.52;97685.19;4980659;28;20118;-72
2023/11/27 02:20:50;;;;;;;29.40;20.92;;;;;;;4.29;91.28;97682.50;4961508;28;20364;-72
2023/11/27 02:23:16;;;;;;;27.60;22.30;;;;;;;4.24;91.43;97684.16;4982902;28;20030;-72
2023/11/27 02:25:42;;;;;;;32.65;23.33;;;;;;;4.13;91.67;97667.84;4946706;28;20418;-71
2023/11/27 02:28:08;;;;;;;35.15;22.90;;;;;;;4.27;91.41;97689.06;4958877;28;20031;-71
2023/11/27 02:30:34;;;;;;;32.22;22.45;;;;;;;4.22;90.87;97675.56;4959658;28;20027;-71
2023/11/27 02:33:01;;;;;;;38.35;23.10;;;;;;;4.27;91.22;97678.41;4960498;28;20062;-73
2023/11/27 02:35:26;;;;;;;30.02;21.88;;;;;;;4.32;90.97;97684.72;4966888;28;20026;-72
2023/11/27 02:37:52;;;;;;;32.05;23.38;;;;;;;4.32;90.94;97686.56;4961178;28;20131;-72
2023/11/27 02:40:18;;;;;;;37.13;22.98;;;;;;;4.31;91.08;97679.59;4977275;28;20054;-70
2023/11/27 02:42:43;;;;;;;31.25;21.50;;;;;;;4.24;91.01;97673.50;4961318;28;20088;-71
2023/11/27 02:45:10;;;;;;;29.52;21.95;;;;;;;4.26;91.25;97672.25;4946554;28;20407;-71
2023/11/27 02:47:36;;;;;;;31.08;22.20;;;;;;;4.22;91.21;97665.75;4962150;28;20035;-71
2023/11/27 02:50:04;;;;;;;29.90;21.40;;;;;;;4.19;90.82;97656.34;4977369;28;20036;-71
2023/11/27 02:52:30;;;;;;;33.17;20.88;;;;;;;4.28;90.77;97661.38;4962211;28;20043;-71
2023/11/27 02:54:57;;;;;;;29.33;20.55;;;;;;;4.27;90.64;97660.53;4959338;28;20022;-72
2023/11/27 02:57:22;;;;;;;29.33;21.30;;;;;;;4.18;91.56;97643.19;4982048;28;20519;-72
2023/11/27 02:59:49;;;;;;;34.10;22.48;;;;;;;4.26;91.24;97650.13;4978534;28;20042;-71
2023/11/27 03:02:15;;;;;;;34.03;21.85;;;;;;;4.19;91.04;97640.34;4965941;28;20101;-71
2023/11/27 03:04:42;;;;;;;33.25;21.30;;;;;;;4.17;91.22;97647.75;4978117;28;20487;-71
2023/11/27 03:07:07;;;;;;;36.55;23.88;;;;;;;4.13;91.11;97646.53;4959174;28;20162;-70
2023/11/27 03:09:33;;;;;;;32.70;21.00;;;;;;;4.07;91.72;97647.41;4956307;28;20479;-71
2023/11/27 03:12:00;;;;;;;32.08;21.55;;;;;;;4.00;91.36;97613.84;4960250;28;20411;-71
2023/11/27 03:14:25;;;;;;;31.55;23.15;;;;;;;4.05;91.47;97638.81;4958437;28;20035;-71
2023/11/27 03:16:51;;;;;;;37.60;23.20;;;;;;;4.07;91.71;97636.75;4961031;28;20042;-71
2023/11/27 03:19:16;;;;;;;27.65;21.50;;;;;;;4.06;91.45;97639.63;4978220;28;20072;-69
2023/11/27 03:21:42;;;;;;;33.63;21.23;;;;;;;3.92;91.93;97606.94;4978879;28;20062;-68
2023/11/27 03:24:08;;;;;;;35.60;21.60;;;;;;;4.04;91.73;97621.19;4978785;28;20039;-72
2023/11/27 03:26:35;;;;;;;33.83;22.88;;;;;;;4.00;91.38;97630.66;4962855;28;20042;-69
2023/11/27 03:29:01;;;;;;;35.63;21.77;;;;;;;3.93;92.03;97608.56;4982784;28;20026;-72
2023/11/27 03:31:27;;;;;;;32.88;22.48;;;;;;;3.94;91.88;97610.22;4963900;28;20042;-73
2023/11/27 03:33:53;;;;;;;31.05;22.17;;;;;;;3.99;91.81;97621.00;4961723;28;20039;-72
2023/11/27 03:36:18;;;;;;;36.17;21.00;;;;;;;3.94;91.66;97620.06;4966090;28;20039;-72
2023/11/27 03:38:44;;;;;;;34.60;22.95;;;;;;;4.00;91.55;97608.50;4963257;28;20026;-73
2023/11/27 03:41:21;;;;;;;32.70;22.27;;;;;;;4.00;91.45;97613.84;4976747;28;20031;-72
2023/11/27 03:43:47;;;;;;;35.90;21.98;;;;;;;3.99;91.72;97607.69;4978242;28;20043;-73
2023/11/27 03:46:13;;;;;;;35.95;22.55;;;;;;;3.84;91.62;97591.22;4983874;28;20030;-74
2023/11/27 03:48:38;;;;;;;31.08;21.00;;;;;;;3.93;91.76;97613.06;4983089;28;20398;-74
2023/11/27 03:51:08;;;;;;;36.10;22.98;;;;;;;3.92;91.37;97606.13;4984231;28;20057;-72
2023/11/27 03:53:34;;;;;;;34.95;22.55;;;;;;;3.77;91.51;97574.50;4980597;28;20058;-72
2023/11/27 03:55:59;;;;;;;30.95;20.60;;;;;;;3.92;91.28;97590.94;4968897;28;20030;-71
2023/11/27 03:58:25;;;;;;;30.75;21.40;;;;;;;3.85;91.14;97579.53;4982780;28;20035;-73
2023/11/27 04:00:52;;;;;;;32.65;21.88;;;;;;;3.96;91.35;97596.66;4982924;28;20026;-72
2023/11/27 04:03:19;;;;;;;38.90;23.45;;;;;;;3.94;91.36;97599.56;4980729;28;20587;-71
2023/11/27 04:05:44;;;;;;;30.65;21.27;;;;;;;3.84;91.97;97582.41;4982838;28;20026;-72
2023/11/27 04:08:10;;;;;;;31.42;22.27;;;;;;;3.89;91.35;97602.06;4980329;28;20497;-71
2023/11/27 04:10:35;;;;;;;34.47;23.70;;;;;;;3.93;91.17;97597.91;4983826;28;20027;-71
2023/11/27 04:13:02;;;;;;;41.13;25.15;;;;;;;3.86;91.44;97589.16;4981618;28;20390;-72
2023/11/27 04:15:29;;;;;;;33.17;22.20;;;;;;;3.92;91.31;97590.94;4985743;28;20417;-73
2023/11/27 04:17:55;;;;;;;37.58;23.15;;;;;;;3.91;91.27;97576.00;4982076;28;20038;-72
2023/11/27 04:20:20;;;;;;;39.78;22.92;;;;;;;3.93;91.23;97589.94;4981475;28;20513;-72
2023/11/27 04:22:47;;;;;;;38.95;23.65;;;;;;;3.93;90.95;97589.94;4974378;28;20671;-72
2023/11/27 04:25:13;;;;;;;37.58;23.98;;;;;;;3.89;91.21;97585.25;4961269;28;20114;-72
2023/11/27 04:27:38;;;;;;;34.33;22.63;;;;;;;3.71;90.98;97551.38;4966514;28;20562;-72
2023/11/27 04:30:05;;;;;;;35.42;21.15;;;;;;;3.89;91.04;97580.75;4982764;28;20030;-72
2023/11/27 04:32:32;;;;;;;44.97;28.23;;;;;;;3.87;91.16;97576.66;4977876;28;20046;-72
2023/11/27 04:34:57;;;;;;;40.75;27.23;;;;;;;3.91;90.86;97577.84;4966330;28;20026;-72
2023/11/27 04:37:23;;;;;;;42.45;25.60;;;;;;;3.86;91.36;97569.69;4981245;28;20435;-72
2023/11/27 04:39:51;;;;;;;39.22;25.15;;;;;;;3.84;91.43;97569.09;4980950;28;20123;-72
2023/11/27 04:42:17;;;;;;;41.10;26.98;;;;;;;3.85;91.12;97574.19;4979335;28;20045;-71
2023/11/27 04:44:42;;;;;;;41.90;25.58;;;;;;;3.84;91.40;97577.91;4965640;28;20086;-72
2023/11/27 04:47:08;;;;;;;39.75;24.48;;;;;;;3.83;91.14;97575.44;4962530;28;20038;-70
2023/11/27 04:49:33;;;;;;;42.58;26.08;;;;;;;3.74;91.18;97560.78;4982569;28;20078;-69
2023/11/27 04:51:58;;;;;;;41.90;26.63;;;;;;;3.80;91.23;97563.41;4981060;28;20093;-70
2023/11/27 04:54:24;;;;;;;45.20;27.83;;;;;;;3.78;91.69;97562.00;4979499;28;20462;-69
2023/11/27 04:56:49;;;;;;;35.58;25.48;;;;;;;3.77;90.98;97558.50;4981984;28;20154;-70
2023/11/27 04:59:26;;;;;;;41.60;28.98;;;;;;;3.78;91.02;97562.00;4980403;28;20026;-71
2023/11/27 05:01:52;;;;;;;51.25;29.73;;;;;;;3.79;91.12;97558.28;4965320;28;20049;-71
2023/11/27 05:04:18;;;;;;;74.93;52.05;;;;;;;3.75;91.05;97547.25;4965379;28;20034;-70
2023/11/27 05:06:45;;;;;;;50.47;34.33;;;;;;;3.72;91.25;97553.00;4975690;28;20034;-70
2023/11/27 05:09:12;;;;;;;43.88;28.17;;;;;;;3.72;91.25;97554.84;4966153;28;20033;-70
2023/11/27 05:11:40;;;;;;;41.65;25.98;;;;;;;3.70;91.15;97549.75;4977724;28;20122;-70
2023/11/27 05:14:06;;;;;;;37.55;24.45;;;;;;;3.67;91.34;97544.84;4967699;28;20037;-70
2023/11/27 05:16:31;;;;;;;42.40;26.27;;;;;;;3.71;91.10;97554.03;4979138;28;20446;-71
2023/11/27 05:18:57;;;;;;;36.72;26.92;;;;;;;3.49;90.96;97504.88;4964019;28;20030;-70
2023/11/27 05:21:22;;;;;;;35.60;24.67;;;;;;;3.66;90.80;97537.91;4978741;28;20065;-70
2023/11/27 05:23:48;;;;;;;36.90;24.63;;;;;;;3.53;91.22;97518.53;4983163;28;20030;-72
2023/11/27 05:26:13;;;;;;;40.30;24.52;;;;;;;3.61;90.95;97537.75;4979780;28;20121;-72
2023/11/27 05:28:39;;;;;;;32.90;23.23;;;;;;;3.59;91.26;97531.84;4985575;28;20416;-71
2023/11/27 05:31:05;;;;;;;35.70;23.02;;;;;;;3.44;91.02;97518.00;4980792;28;20454;-70
2023/11/27 05:33:31;;;;;;;33.83;23.13;;;;;;;3.57;91.03;97527.75;4979880;28;20030;-70
2023/11/27 05:35:56;;;;;;;35.58;23.17;;;;;;;3.56;90.53;97531.44;4981899;28;20045;-71
2023/11/27 05:38:22;;;;;;;36.53;23.95;;;;;;;3.48;91.34;97530.66;4964051;28;20026;-71
2023/11/27 05:40:49;;;;;;;36.63;24.40;;;;;;;3.52;91.07;97524.91;4957715;28;20027;-71
2023/11/27 05:43:15;;;;;;;32.63;22.38;;;;;;;3.46;91.24;97523.94;4992293;28;20461;-70
2023/11/27 05:45:40;;;;;;;34.28;23.27;;;;;;;3.45;91.07;97524.97;4984964;28;20161;-71
2023/11/27 05:48:06;;;;;;;38.28;22.70;;;;;;;3.25;90.98;97493.16;4985462;28;20117;-70
2023/11/27 05:50:31;;;;;;;33.50;22.02;;;;;;;3.43;91.21;97511.06;4953239;28;20043;-71
2023/11/27 05:52:57;;;;;;;32.38;23.10;;;;;;;3.38;91.10;97518.88;4964813;28;20046;-72
2023/11/27 05:55:23;;;;;;;33.05;23.88;;;;;;;3.38;91.19;97513.56;4961090;28;20042;-71
2023/11/27 05:57:51;;;;;;;39.00;24.20;;;;;;;3.32;91.60;97511.75;4983784;28;20105;-72
2023/11/27 06:00:17;;;;;;;36.60;24.23;;;;;;;3.22;91.29;97504.22;4979748;28;20372;-72
2023/11/27 06:02:42;;;;;;;37.30;24.75;;;;;;;3.26;91.30;97509.94;4977654;28;20041;-72
2023/11/27 06:05:08;;;;;;;28.42;22.13;;;;;;;3.25;91.74;97503.00;4979748;28;20074;-71
2023/11/27 06:07:34;;;;;;;38.85;25.10;;;;;;;3.21;91.48;97491.16;4945923;28;20089;-71
2023/11/27 06:09:59;;;;;;;35.65;23.77;;;;;;;3.29;91.43;97493.56;4964192;28;20031;-71
2023/11/27 06:12:25;;;;;;;34.78;23.58;;;;;;;3.27;91.63;97493.75;4981890;28;20030;-71
2023/11/27 06:14:51;;;;;;;39.85;24.77;;;;;;;3.29;91.33;97493.56;4974210;28;20043;-72
2023/11/27 06:17:17;;;;;;;41.10;25.65;;;;;;;3.22;91.66;97476.84;4982767;28;20330;-71
2023/11/27 06:19:43;;;;;;;36.55;24.92;;;;;;;3.27;91.05;97490.28;4958596;28;20039;-72
2023/11/27 06:22:09;;;;;;;39.40;25.27;;;;;;;3.34;90.97;97491.06;4966485;28;20109;-72
2023/11/27 06:24:35;;;;;;;40.72;26.92;;;;;;;3.31;91.37;97486.19;4977567;28;20085;-72
2023/11/27 06:27:00;;;;;;;35.38;25.52;;;;;;;3.28;91.06;97481.28;4945860;28;20113;-71
2023/11/27 06:29:26;;;;;;;35.92;24.80;;;;;;;3.23;91.16;97473.13;4975703;28;20042;-71
2023/11/27 06:31:52;;;;;;;39.38;25.63;;;;;;;3.24;91.39;97474.78;4980900;28;20026;-72
2023/11/27 06:34:17;;;;;;;34.97;25.95;;;;;;;3.31;90.99;97475.53;4985006;28;20082;-70
2023/11/27 06:36:43;;;;;;;42.40;27.15;;;;;;;3.35;91.03;97476.72;4981879;28;20754;-71
2023/11/27 06:39:08;;;;;;;39.83;25.17;;;;;;;3.38;91.14;97476.31;4978662;28;20035;-70
2023/11/27 06:41:34;;;;;;;38.92;26.58;;;;;;;3.32;91.06;97469.16;4959481;28;20026;-71
2023/11/27 06:44:00;;;;;;;34.58;24.00;;;;;;;3.27;91.26;97450.38;4979985;28;20035;-74
2023/11/27 06:46:27;;;;;;;33.72;25.10;;;;;;;3.37;90.63;97464.03;4978731;28;20022;-73
2023/11/27 06:48:53;;;;;;;38.13;26.38;;;;;;;3.35;91.02;97461.59;4963575;28;20031;-71
2023/11/27 06:51:19;;;;;;;37.10;25.75;;;;;;;3.32;91.39;97458.53;4979960;28;20410;-72
2023/11/27 06:53:44;;;;;;;35.55;26.92;;;;;;;3.34;90.92;97469.75;4956635;28;20125;-73
2023/11/27 06:56:10;;;;;;;37.63;26.25;;;;;;;3.38;91.18;97460.34;4981324;28;20027;-71
2023/11/27 06:58:35;;;;;;;42.88;31.20;;;;;;;3.38;90.68;97457.69;4958557;28;20061;-70
2023/11/27 07:01:01;;;;;;;42.47;28.92;;;;;;;3.41;91.04;97463.38;4981309;28;20486;-71
2023/11/27 07:03:27;;;;;;;36.67;27.45;;;;;;;3.41;90.74;97467.88;4978336;28;20031;-71
2023/11/27 07:05:53;;;;;;;41.97;33.33;;;;;;;3.41;91.00;97451.91;4979012;28;20084;-72
2023/11/27 07:08:18;;;;;;;46.90;34.20;;;;;;;3.50;90.77;97453.28;4975863;28;20558;-72
2023/11/27 07:10:44;;;;;;;45.65;31.77;;;;;;;3.48;90.97;97450.00;4964824;28;20035;-72
2023/11/27 07:13:09;;;;;;;34.80;25.88;;;;;;;3.46;91.27;97441.41;4978065;28;20122;-72
2023/11/27 07:15:34;;;;;;;37.83;26.98;;;;;;;3.51;90.88;97449.56;4974409;28;20029;-73
2023/11/27 07:18:00;;;;;;;30.92;22.95;;;;;;;3.37;90.58;97410.78;4978816;28;20038;-71
2023/11/27 07:20:25;;;;;;;31.02;22.67;;;;;;;3.52;90.64;97429.91;4978627;28;20026;-71
2023/11/27 07:22:51;;;;;;;32.17;21.38;;;;;;;3.52;90.98;97424.59;4979108;28;20038;-73
2023/11/27 07:25:16;;;;;;;31.50;21.63;;;;;;;3.48;90.65;97415.41;4979375;28;20406;-72
2023/11/27 07:27:49;;;;;;;29.05;20.08;;;;;;;3.52;90.77;97419.28;4950552;28;20031;-70
2023/11/27 07:30:15;;;;;;;26.85;19.30;;;;;;;3.56;90.66;97415.13;4959898;28;20475;-71
2023/11/27 07:32:41;;;;;;;29.58;21.65;;;;;;;3.58;90.65;97414.91;4956874;28;20039;-72
2023/11/27 07:35:10;;;;;;;33.40;22.92;;;;;;;3.45;90.48;97382.06;4958273;28;20036;-71
2023/11/27 07:37:36;;;;;;;30.30;21.27;;;;;;;3.50;90.40;97389.41;4957830;28;20031;-71
2023/11/27 07:40:01;;;;;;;30.02;20.85;;;;;;;3.59;90.65;97404.06;4960504;28;20030;-70
2023/11/27 07:42:27;;;;;;;25.77;20.10;;;;;;;3.56;90.86;97393.84;4975910;28;20034;-71
2023/11/27 07:44:53;;;;;;;31.25;20.88;;;;;;;3.58;90.63;97386.44;4963109;28;20093;-71
2023/11/27 07:47:22;;;;;;;27.67;21.52;;;;;;;3.63;90.35;97393.75;4959797;28;20027;-70
2023/11/27 07:49:47;;;;;;;30.60;22.15;;;;;;;3.64;90.76;97390.09;4982657;28;20034;-71
2023/11/27 07:52:13;;;;;;;26.63;19.77;;;;;;;3.65;90.48;97389.84;4977925;28;20371;-70
2023/11/27 07:54:41;;;;;;;29.48;21.77;;;;;;;3.73;90.23;97389.59;4976301;28;20062;-71
2023/11/27 07:57:07;;;;;;;35.90;23.08;;;;;;;3.69;89.87;97375.06;4978916;28;20080;-72
2023/11/27 07:59:32;;;;;;;34.15;22.42;;;;;;;3.75;90.20;97382.19;4977979;28;20125;-70
2023/11/27 08:02:00;;;;;;;28.00;20.90;;;;;;;3.77;90.13;97379.28;4962730;28;20368;-69
2023/11/27 08:04:26;;;;;;;26.75;19.40;;;;;;;3.62;90.36;97353.00;4963140;28;20042;-70
2023/11/27 08:06:51;;;;;;;31.45;21.52;;;;;;;3.68;90.00;97354.00;4955764;28;20123;-72
2023/11/27 08:09:17;;;;;;;33.17;21.95;;;;;;;3.83;90.65;97362.41;4964603;28;20116;-70
2023/11/27 08:11:42;;;;;;;33.17;20.80;;;;;;;3.78;90.57;97349.75;4957253;28;20034;-72
2023/11/27 08:14:10;;;;;;;28.17;20.05;;;;;;;3.91;89.84;97359.47;4965606;28;20030;-70
2023/11/27 08:16:35;;;;;;;27.77;18.27;;;;;;;3.91;90.32;97354.13;4976102;28;20459;-71
2023/11/27 08:19:01;;;;;;;26.35;19.90;;;;;;;3.93;89.84;97352.88;4977498;28;20042;-72
2023/11/27 08:21:26;;;;;;;29.08;20.77;;;;;;;3.78;90.20;97323.13;4956857;28;20031;-71
2023/11/27 08:23:52;;;;;;;26.38;19.85;;;;;;;3.86;90.34;97341.50;4961583;28;20047;-71
2023/11/27 08:26:17;;;;;;;31.58;21.25;;;;;;;3.93;89.69;97352.88;4957888;28;20127;-71
2023/11/27 08:28:44;;;;;;;26.48;18.88;;;;;;;3.94;89.83;97346.53;4983948;28;20133;-70
2023/11/27 08:31:09;;;;;;;26.77;19.88;;;;;;;3.95;90.23;97345.47;4962826;28;20069;-71
2023/11/27 08:33:34;;;;;;;29.65;21.17;;;;;;;3.92;90.06;97337.94;4962154;28;20058;-71
2023/11/27 08:36:02;;;;;;;25.48;20.27;;;;;;;4.00;89.99;97342.13;4982921;28;20026;-70
2023/11/27 08:38:30;;;;;;;26.13;20.05;;;;;;;3.92;89.95;97323.81;4966110;28;20125;-70
2023/11/27 08:40:56;;;;;;;26.63;20.17;;;;;;;4.10;89.62;97342.44;4976037;28;20077;-71
2023/11/27 08:43:22;;;;;;;27.40;19.92;;;;;;;4.09;89.70;97324.81;4968611;28;20042;-72
2023/11/27 08:45:47;;;;;;;23.50;19.60;;;;;;;4.12;89.58;97335.84;4977901;28;20421;-70
2023/11/27 08:48:13;;;;;;;27.55;20.27;;;;;;;4.11;89.36;97331.53;4980396;28;20047;-73
2023/11/27 08:50:40;;;;;;;31.88;21.13;;;;;;;4.17;89.18;97328.00;4961601;28;20026;-72
2023/11/27 08:53:07;;;;;;;26.23;18.60;;;;;;;4.17;89.90;97314.69;4965040;28;20035;-73
2023/11/27 08:55:33;;;;;;;26.25;19.23;;;;;;;4.33;89.07;97323.06;4980272;28;20041;-72
2023/11/27 08:58:03;;;;;;;24.35;17.73;;;;;;;4.40;89.30;97321.13;4965500;28;20113;-70
2023/11/27 09:00:31;;;;;;;26.35;18.45;;;;;;;4.29;89.14;97300.56;4976956;28;20029;-70
2023/11/27 09:02:57;;;;;;;25.95;16.70;;;;;;;4.38;89.21;97317.88;4965976;28;20042;-71
2023/11/27 09:05:24;;;;;;;21.25;15.25;;;;;;;4.44;88.80;97317.78;4978072;28;20034;-70
2023/11/27 09:07:53;;;;;;;18.65;15.63;;;;;;;4.47;88.75;97316.50;4962168;28;20035;-70
2023/11/27 09:10:20;;;;;;;19.45;13.98;;;;;;;4.47;88.65;97306.66;4967488;28;20027;-70
2023/11/27 09:12:45;;;;;;;18.88;15.18;;;;;;;4.53;88.07;97299.59;4963647;28;20063;-71
2023/11/27 09:15:11;;;;;;;19.63;15.15;;;;;;;4.53;88.64;97300.41;4960197;28;20065;-71
2023/11/27 09:17:37;;;;;;;20.38;15.00;;;;;;;4.57;87.94;97295.44;4963654;28;20046;-70
2023/11/27 09:20:04;;;;;;;22.08;17.08;;;;;;;4.62;87.55;97303.56;4959852;28;20027;-70
2023/11/27 09:22:29;;;;;;;21.15;15.63;;;;;;;4.70;87.38;97303.22;4962923;28;20049;-70
2023/11/27 09:24:55;;;;;;;26.50;18.70;;;;;;;4.71;87.68;97296.88;4978175;28;20023;-70
2023/11/27 09:27:20;;;;;;;35.78;23.60;;;;;;;4.78;87.37;97292.25;4978578;28;20038;-71
2023/11/27 09:29:45;;;;;;;22.10;16.20;;;;;;;4.78;87.76;97286.91;4962002;28;20033;-70
2023/11/27 09:32:11;;;;;;;21.20;14.15;;;;;;;4.77;87.38;97280.75;4970117;28;20038;-69
2023/11/27 09:34:36;;;;;;;21.88;14.20;;;;;;;4.82;87.25;97282.72;4981017;28;20122;-69
2023/11/27 09:37:02;;;;;;;20.52;14.23;;;;;;;4.79;86.97;97284.00;4981473;28;20053;-70
2023/11/27 09:39:27;;;;;;;21.05;14.27;;;;;;;4.84;86.71;97264.63;4961148;28;20031;-70
2023/11/27 09:41:53;;;;;;;18.75;13.32;;;;;;;4.94;86.54;97264.88;4978251;28;20063;-68
2023/11/27 09:44:19;;;;;;;19.17;13.98;;;;;;;4.75;87.15;97248.19;4982159;28;20034;-69
2023/11/27 09:46:47;;;;;;;19.13;14.90;;;;;;;4.96;87.35;97264.66;4962713;28;20041;-69
2023/11/27 09:49:16;;;;;;;15.77;12.32;;;;;;;4.94;86.97;97259.56;4950751;28;20046;-69
2023/11/27 09:51:46;;;;;;;20.35;12.63;;;;;;;4.94;86.94;97254.22;4964070;28;20086;-69
2023/11/27 09:54:12;;;;;;;19.77;12.00;;;;;;;4.85;86.75;97239.59;4961626;28;20416;-70
2023/11/27 09:56:39;;;;;;;15.75;11.88;;;;;;;4.89;85.95;97243.41;4963681;28;20037;-70
2023/11/27 09:59:08;;;;;;;18.48;12.32;;;;;;;4.88;86.31;97228.44;4960977;28;20415;-69
2023/11/27 10:01:35;;;;;;;17.05;11.85;;;;;;;5.00;86.35;97234.59;4974367;28;20037;-70
2023/11/27 10:04:04;;;;;;;16.08;11.98;;;;;;;4.92;85.88;97226.97;4980557;28;20042;-69
2023/11/27 10:06:32;;;;;;;16.98;13.30;;;;;;;4.90;86.14;97221.06;4975926;28;20077;-69
2023/11/27 10:09:04;;;;;;;15.82;11.73;;;;;;;4.95;85.79;97218.47;4965573;28;20046;-69
2023/11/27 10:11:33;;;;;;;14.27;12.10;;;;;;;4.87;85.34;97210.84;4961128;28;20496;-72
2023/11/27 10:14:10;;;;;;;17.25;12.07;;;;;;;4.81;85.90;97201.06;4962377;28;20101;-72
2023/11/27 10:16:41;;;;;;;14.05;11.60;;;;;;;4.86;85.97;97209.19;4960372;28;20491;-72
2023/11/27 10:19:08;;;;;;;20.08;12.82;;;;;;;4.85;85.46;97207.59;4963691;28;20042;-73
2023/11/27 10:21:34;;;;;;;17.92;12.18;;;;;;;4.73;85.84;97194.25;4961872;28;20394;-71
2023/11/27 10:24:08;;;;;;;15.63;12.02;;;;;;;4.80;85.83;97200.28;4965333;28;20038;-72
2023/11/27 10:26:34;;;;;;;18.33;14.07;;;;;;;4.84;85.37;97190.78;4963275;28;20102;-72
2023/11/27 10:28:59;;;;;;;17.65;13.75;;;;;;;4.73;85.74;97162.25;4959969;28;20031;-72
2023/11/27 10:31:24;;;;;;;16.10;12.75;;;;;;;4.83;85.92;97172.34;4964139;28;20490;-72
2023/11/27 10:33:55;;;;;;;22.98;13.90;;;;;;;4.85;85.70;97170.25;4978211;28;20028;-72
2023/11/27 10:36:23;;;;;;;16.33;12.57;;;;;;;4.72;86.17;97160.63;4982983;28;20081;-71
2023/11/27 10:39:14;;;;;;;14.93;12.40;;;;;;;4.77;85.34;97162.59;4978857;28;20033;-72
2023/11/27 10:41:46;;;;;;;16.08;12.20;;;;;;;4.73;85.99;97148.94;4976742;28;20557;-72
2023/11/27 10:44:15;;;;;;;16.33;12.10;;;;;;;4.79;85.84;97149.84;4962774;28;20062;-71
2023/11/27 10:46:41;;;;;;;15.65;11.48;;;;;;;4.79;86.48;97152.50;4978465;28;20085;-71
2023/11/27 10:49:09;;;;;;;15.07;11.60;;;;;;;4.75;86.50;97140.69;4963649;28;20034;-72
2023/11/27 10:51:35;;;;;;;16.48;11.68;;;;;;;4.86;85.66;97132.66;4962921;28;20022;-72
2023/11/27 10:54:01;;;;;;;15.15;11.57;;;;;;;4.80;85.70;97109.63;4957343;28;20034;-71
2023/11/27 10:56:33;;;;;;;14.50;11.35;;;;;;;4.93;85.58;97119.19;4982463;28;20448;-72
2023/11/27 10:59:09;;;;;;;14.25;10.90;;;;;;;4.99;85.25;97110.28;4959080;28;20115;-72
2023/11/27 11:01:41;;;;;;;12.73;10.10;;;;;;;4.87;85.89;97109.47;4964798;28;20034;-72
2023/11/27 11:04:41;;;;;;;18.55;10.50;;;;;;;4.80;85.97;97103.47;4961189;28;20103;-72
2023/11/27 11:07:18;;;;;;;13.40;11.77;;;;;;;4.80;85.85;97096.28;4953514;28;20039;-72
2023/11/27 11:09:56;;;;;;;16.70;11.70;;;;;;;4.75;86.41;97092.69;4963522;28;20038;-73
2023/11/27 11:12:23;;;;;;;13.93;11.32;;;;;;;4.76;86.14;97099.66;4962519;28;20034;-69
2023/11/27 11:14:51;;;;;;;14.85;12.18;;;;;;;4.80;85.49;97100.78;4963172;28;20023;-71
2023/11/27 11:17:37;;;;;;;13.73;11.65;;;;;;;4.81;85.53;97091.72;4966336;28;20040;-72
2023/11/27 11:20:25;;;;;;;12.93;11.63;;;;;;;4.48;85.95;97075.56;4952856;28;20038;-71
2023/11/27 11:23:11;;;;;;;15.63;12.40;;;;;;;4.65;86.27;97084.47;4972670;28;20558;-71